sensor_id;sensor_type;location;lat;lon;timestamp;P1;durP1;ratioP1;P2;durP2;ratioP2
52458;SDS011;38372;52.902;6.024;2022-08-04T00:05:28;7.65;;;3.95;;
52458;SDS011;38372;52.902;6.024;2022-08-04T00:11:13;9.90;;;4.22;;
52458;SDS011;38372;52.902;6.024;2022-08-04T00:14:35;10.65;;;4.32;;
52458;SDS011;38372;52.902;6.024;2022-08-04T00:16:49;8.60;;;4.25;;
52458;SDS011;38372;52.902;6.024;2022-08-04T00:20:02;11.93;;;4.47;;
52458;SDS011;38372;52.902;6.024;2022-08-04T00:22:16;10.43;;;5.35;;
52458;SDS011;38372;52.902;6.024;2022-08-04T00:24:51;11.57;;;4.18;;
52458;SDS011;38372;52.902;6.024;2022-08-04T00:27:22;12.70;;;4.72;;
52458;SDS011;38372;52.902;6.024;2022-08-04T00:29:52;12.32;;;3.85;;
52458;SDS011;38372;52.902;6.024;2022-08-04T00:32:25;10.25;;;4.78;;
52458;SDS011;38372;52.902;6.024;2022-08-04T00:37:21;8.90;;;4.30;;
52458;SDS011;38372;52.902;6.024;2022-08-04T00:39:50;10.18;;;4.70;;
52458;SDS011;38372;52.902;6.024;2022-08-04T00:42:26;8.95;;;4.35;;
52458;SDS011;38372;52.902;6.024;2022-08-04T00:50:12;14.48;;;4.43;;
52458;SDS011;38372;52.902;6.024;2022-08-04T00:53:00;9.02;;;3.97;;
52458;SDS011;38372;52.902;6.024;2022-08-04T01:01:32;8.60;;;4.50;;
52458;SDS011;38372;52.902;6.024;2022-08-04T01:04:40;9.18;;;4.30;;
52458;SDS011;38372;52.902;6.024;2022-08-04T01:13:09;7.63;;;4.07;;
52458;SDS011;38372;52.902;6.024;2022-08-04T01:15:59;11.43;;;4.47;;
52458;SDS011;38372;52.902;6.024;2022-08-04T01:18:54;14.20;;;5.20;;
52458;SDS011;38372;52.902;6.024;2022-08-04T01:21:47;11.15;;;4.80;;
52458;SDS011;38372;52.902;6.024;2022-08-04T01:29:59;15.68;;;4.68;;
52458;SDS011;38372;52.902;6.024;2022-08-04T01:32:39;12.32;;;3.95;;
52458;SDS011;38372;52.902;6.024;2022-08-04T01:35:29;12.00;;;4.80;;
52458;SDS011;38372;52.902;6.024;2022-08-04T01:40:43;9.00;;;4.75;;
52458;SDS011;38372;52.902;6.024;2022-08-04T01:43:10;11.07;;;4.72;;
52458;SDS011;38372;52.902;6.024;2022-08-04T01:45:39;10.52;;;5.55;;
52458;SDS011;38372;52.902;6.024;2022-08-04T01:48:06;15.40;;;5.25;;
52458;SDS011;38372;52.902;6.024;2022-08-04T01:50:33;12.60;;;5.40;;
52458;SDS011;38372;52.902;6.024;2022-08-04T01:53:01;10.07;;;5.05;;
52458;SDS011;38372;52.902;6.024;2022-08-04T01:55:28;11.23;;;5.18;;
52458;SDS011;38372;52.902;6.024;2022-08-04T01:57:56;9.82;;;4.93;;
52458;SDS011;38372;52.902;6.024;2022-08-04T02:00:25;9.97;;;5.67;;
52458;SDS011;38372;52.902;6.024;2022-08-04T02:02:53;12.50;;;5.25;;
52458;SDS011;38372;52.902;6.024;2022-08-04T02:05:20;11.63;;;4.97;;
52458;SDS011;38372;52.902;6.024;2022-08-04T02:18:36;10.55;;;4.47;;
52458;SDS011;38372;52.902;6.024;2022-08-04T02:21:15;11.30;;;5.05;;
52458;SDS011;38372;52.902;6.024;2022-08-04T02:23:43;7.10;;;4.82;;
52458;SDS011;38372;52.902;6.024;2022-08-04T02:26:18;13.65;;;5.03;;
52458;SDS011;38372;52.902;6.024;2022-08-04T02:34:08;11.02;;;5.63;;
52458;SDS011;38372;52.902;6.024;2022-08-04T02:36:41;11.98;;;5.00;;
52458;SDS011;38372;52.902;6.024;2022-08-04T02:39:09;8.30;;;4.47;;
52458;SDS011;38372;52.902;6.024;2022-08-04T02:41:36;6.20;;;4.20;;
52458;SDS011;38372;52.902;6.024;2022-08-04T02:44:07;13.15;;;5.80;;
52458;SDS011;38372;52.902;6.024;2022-08-04T02:46:35;10.48;;;4.97;;
52458;SDS011;38372;52.902;6.024;2022-08-04T02:49:04;8.40;;;5.30;;
52458;SDS011;38372;52.902;6.024;2022-08-04T02:51:39;11.43;;;5.00;;
52458;SDS011;38372;52.902;6.024;2022-08-04T02:54:07;13.20;;;5.05;;
52458;SDS011;38372;52.902;6.024;2022-08-04T02:56:34;10.38;;;5.50;;
52458;SDS011;38372;52.902;6.024;2022-08-04T02:59:07;11.15;;;4.80;;
52458;SDS011;38372;52.902;6.024;2022-08-04T03:01:34;13.40;;;4.53;;
52458;SDS011;38372;52.902;6.024;2022-08-04T03:06:30;11.63;;;4.97;;
52458;SDS011;38372;52.902;6.024;2022-08-04T03:23:31;7.15;;;4.00;;
52458;SDS011;38372;52.902;6.024;2022-08-04T03:29:23;10.40;;;5.60;;
52458;SDS011;38372;52.902;6.024;2022-08-04T03:40:28;12.57;;;6.13;;
52458;SDS011;38372;52.902;6.024;2022-08-04T03:45:53;6.68;;;4.10;;
52458;SDS011;38372;52.902;6.024;2022-08-04T03:59:51;11.75;;;5.90;;
52458;SDS011;38372;52.902;6.024;2022-08-04T04:02:33;8.27;;;5.50;;
52458;SDS011;38372;52.902;6.024;2022-08-04T04:13:17;9.85;;;4.60;;
52458;SDS011;38372;52.902;6.024;2022-08-04T04:18:57;14.85;;;6.35;;
52458;SDS011;38372;52.902;6.024;2022-08-04T04:24:32;14.43;;;5.60;;
52458;SDS011;38372;52.902;6.024;2022-08-04T04:30:22;8.18;;;4.00;;
52458;SDS011;38372;52.902;6.024;2022-08-04T04:32:58;15.75;;;6.35;;
52458;SDS011;38372;52.902;6.024;2022-08-04T04:35:37;11.07;;;5.72;;
52458;SDS011;38372;52.902;6.024;2022-08-04T04:43:18;10.93;;;5.82;;
52458;SDS011;38372;52.902;6.024;2022-08-04T04:49:12;10.13;;;4.57;;
52458;SDS011;38372;52.902;6.024;2022-08-04T04:52:02;14.60;;;6.32;;
52458;SDS011;38372;52.902;6.024;2022-08-04T04:55:09;15.18;;;6.75;;
52458;SDS011;38372;52.902;6.024;2022-08-04T04:57:45;11.73;;;6.47;;
52458;SDS011;38372;52.902;6.024;2022-08-04T05:00:15;16.02;;;6.95;;
52458;SDS011;38372;52.902;6.024;2022-08-04T05:13:43;11.73;;;6.78;;
52458;SDS011;38372;52.902;6.024;2022-08-04T05:19:06;11.80;;;7.78;;
52458;SDS011;38372;52.902;6.024;2022-08-04T05:21:44;12.45;;;7.22;;
52458;SDS011;38372;52.902;6.024;2022-08-04T05:24:44;11.73;;;7.20;;
52458;SDS011;38372;52.902;6.024;2022-08-04T05:27:17;13.68;;;7.78;;
52458;SDS011;38372;52.902;6.024;2022-08-04T05:29:50;12.95;;;7.60;;
52458;SDS011;38372;52.902;6.024;2022-08-04T05:32:19;19.33;;;8.35;;
52458;SDS011;38372;52.902;6.024;2022-08-04T05:34:57;9.90;;;7.32;;
52458;SDS011;38372;52.902;6.024;2022-08-04T05:37:31;13.93;;;8.32;;
52458;SDS011;38372;52.902;6.024;2022-08-04T05:40:00;16.67;;;8.43;;
52458;SDS011;38372;52.902;6.024;2022-08-04T05:44:56;14.55;;;8.05;;
52458;SDS011;38372;52.902;6.024;2022-08-04T05:47:23;15.38;;;8.30;;
52458;SDS011;38372;52.902;6.024;2022-08-04T05:49:49;14.27;;;7.72;;
52458;SDS011;38372;52.902;6.024;2022-08-04T05:52:16;12.02;;;7.93;;
52458;SDS011;38372;52.902;6.024;2022-08-04T05:54:43;12.80;;;7.53;;
52458;SDS011;38372;52.902;6.024;2022-08-04T05:57:10;13.82;;;7.70;;
52458;SDS011;38372;52.902;6.024;2022-08-04T05:59:38;13.57;;;7.63;;
52458;SDS011;38372;52.902;6.024;2022-08-04T06:02:07;14.25;;;7.97;;
52458;SDS011;38372;52.902;6.024;2022-08-04T06:04:34;17.48;;;6.95;;
52458;SDS011;38372;52.902;6.024;2022-08-04T06:07:03;9.90;;;6.43;;
52458;SDS011;38372;52.902;6.024;2022-08-04T06:09:30;11.35;;;6.78;;
52458;SDS011;38372;52.902;6.024;2022-08-04T06:12:00;12.45;;;6.78;;
52458;SDS011;38372;52.902;6.024;2022-08-04T06:14:39;13.37;;;6.20;;
52458;SDS011;38372;52.902;6.024;2022-08-04T06:17:08;11.77;;;5.70;;
52458;SDS011;38372;52.902;6.024;2022-08-04T06:19:38;9.50;;;5.70;;
52458;SDS011;38372;52.902;6.024;2022-08-04T06:22:06;12.00;;;5.72;;
52458;SDS011;38372;52.902;6.024;2022-08-04T06:24:35;15.02;;;6.13;;
52458;SDS011;38372;52.902;6.024;2022-08-04T06:27:03;9.45;;;5.45;;
52458;SDS011;38372;52.902;6.024;2022-08-04T06:29:31;12.27;;;5.65;;
52458;SDS011;38372;52.902;6.024;2022-08-04T06:32:05;10.43;;;7.32;;
52458;SDS011;38372;52.902;6.024;2022-08-04T06:34:55;16.73;;;8.23;;
52458;SDS011;38372;52.902;6.024;2022-08-04T06:37:24;16.17;;;8.25;;
52458;SDS011;38372;52.902;6.024;2022-08-04T06:39:51;15.52;;;7.63;;
52458;SDS011;38372;52.902;6.024;2022-08-04T06:42:19;10.77;;;7.40;;
52458;SDS011;38372;52.902;6.024;2022-08-04T06:44:48;13.07;;;8.55;;
52458;SDS011;38372;52.902;6.024;2022-08-04T06:47:16;12.90;;;9.10;;
52458;SDS011;38372;52.902;6.024;2022-08-04T06:49:46;12.40;;;9.23;;
52458;SDS011;38372;52.902;6.024;2022-08-04T06:52:16;12.65;;;8.45;;
52458;SDS011;38372;52.902;6.024;2022-08-04T06:54:44;13.75;;;8.27;;
52458;SDS011;38372;52.902;6.024;2022-08-04T06:57:12;10.13;;;6.68;;
52458;SDS011;38372;52.902;6.024;2022-08-04T06:59:44;9.73;;;6.47;;
52458;SDS011;38372;52.902;6.024;2022-08-04T07:02:14;11.85;;;8.15;;
52458;SDS011;38372;52.902;6.024;2022-08-04T07:07:09;13.60;;;7.30;;
52458;SDS011;38372;52.902;6.024;2022-08-04T07:09:37;12.23;;;7.60;;
52458;SDS011;38372;52.902;6.024;2022-08-04T07:12:04;12.27;;;7.15;;
52458;SDS011;38372;52.902;6.024;2022-08-04T07:14:32;10.15;;;7.15;;
52458;SDS011;38372;52.902;6.024;2022-08-04T07:17:03;9.80;;;6.38;;
52458;SDS011;38372;52.902;6.024;2022-08-04T07:19:32;15.82;;;6.70;;
52458;SDS011;38372;52.902;6.024;2022-08-04T07:22:00;14.95;;;6.07;;
52458;SDS011;38372;52.902;6.024;2022-08-04T07:24:31;12.77;;;6.40;;
52458;SDS011;38372;52.902;6.024;2022-08-04T07:26:57;13.60;;;5.82;;
52458;SDS011;38372;52.902;6.024;2022-08-04T07:29:24;10.38;;;5.88;;
52458;SDS011;38372;52.902;6.024;2022-08-04T07:31:51;11.00;;;6.53;;
52458;SDS011;38372;52.902;6.024;2022-08-04T07:34:19;14.82;;;6.03;;
52458;SDS011;38372;52.902;6.024;2022-08-04T07:36:47;10.40;;;5.47;;
52458;SDS011;38372;52.902;6.024;2022-08-04T07:39:15;9.70;;;5.18;;
52458;SDS011;38372;52.902;6.024;2022-08-04T07:41:41;7.25;;;5.32;;
52458;SDS011;38372;52.902;6.024;2022-08-04T07:44:09;7.85;;;4.88;;
52458;SDS011;38372;52.902;6.024;2022-08-04T07:46:39;6.82;;;4.38;;
52458;SDS011;38372;52.902;6.024;2022-08-04T07:49:06;9.30;;;5.13;;
52458;SDS011;38372;52.902;6.024;2022-08-04T07:51:32;9.60;;;5.22;;
52458;SDS011;38372;52.902;6.024;2022-08-04T07:53:59;8.95;;;5.13;;
52458;SDS011;38372;52.902;6.024;2022-08-04T07:56:33;9.70;;;5.28;;
52458;SDS011;38372;52.902;6.024;2022-08-04T07:59:03;7.18;;;4.65;;
52458;SDS011;38372;52.902;6.024;2022-08-04T08:01:31;8.85;;;5.72;;
52458;SDS011;38372;52.902;6.024;2022-08-04T08:04:05;10.88;;;4.53;;
52458;SDS011;38372;52.902;6.024;2022-08-04T08:06:34;8.88;;;4.40;;
52458;SDS011;38372;52.902;6.024;2022-08-04T08:09:09;9.13;;;4.30;;
52458;SDS011;38372;52.902;6.024;2022-08-04T08:11:37;6.25;;;4.10;;
52458;SDS011;38372;52.902;6.024;2022-08-04T08:14:04;7.25;;;3.42;;
52458;SDS011;38372;52.902;6.024;2022-08-04T08:16:34;7.78;;;4.65;;
52458;SDS011;38372;52.902;6.024;2022-08-04T08:19:00;7.18;;;4.20;;
52458;SDS011;38372;52.902;6.024;2022-08-04T08:21:27;9.55;;;4.25;;
52458;SDS011;38372;52.902;6.024;2022-08-04T08:23:53;11.52;;;4.03;;
52458;SDS011;38372;52.902;6.024;2022-08-04T08:26:20;6.25;;;3.97;;
52458;SDS011;38372;52.902;6.024;2022-08-04T08:28:46;7.70;;;4.63;;
52458;SDS011;38372;52.902;6.024;2022-08-04T08:31:12;11.02;;;3.92;;
52458;SDS011;38372;52.902;6.024;2022-08-04T08:33:38;9.73;;;4.30;;
52458;SDS011;38372;52.902;6.024;2022-08-04T08:39:00;5.95;;;3.38;;
52458;SDS011;38372;52.902;6.024;2022-08-04T08:47:08;7.07;;;3.00;;
52458;SDS011;38372;52.902;6.024;2022-08-04T08:49:54;5.60;;;2.75;;
52458;SDS011;38372;52.902;6.024;2022-08-04T08:52:43;6.78;;;2.65;;
52458;SDS011;38372;52.902;6.024;2022-08-04T09:00:55;10.40;;;2.78;;
52458;SDS011;38372;52.902;6.024;2022-08-04T09:03:45;7.22;;;2.25;;
52458;SDS011;38372;52.902;6.024;2022-08-04T09:12:47;9.07;;;1.92;;
52458;SDS011;38372;52.902;6.024;2022-08-04T09:17:56;6.18;;;2.25;;
52458;SDS011;38372;52.902;6.024;2022-08-04T09:26:19;5.80;;;2.00;;
52458;SDS011;38372;52.902;6.024;2022-08-04T09:29:07;5.50;;;2.38;;
52458;SDS011;38372;52.902;6.024;2022-08-04T09:31:40;9.52;;;3.22;;
52458;SDS011;38372;52.902;6.024;2022-08-04T09:34:36;6.68;;;1.83;;
52458;SDS011;38372;52.902;6.024;2022-08-04T09:37:26;5.72;;;1.58;;
52458;SDS011;38372;52.902;6.024;2022-08-04T09:40:20;4.50;;;1.92;;
52458;SDS011;38372;52.902;6.024;2022-08-04T09:48:18;7.57;;;1.58;;
52458;SDS011;38372;52.902;6.024;2022-08-04T09:51:12;3.83;;;1.60;;
52458;SDS011;38372;52.902;6.024;2022-08-04T09:53:56;6.18;;;1.77;;
52458;SDS011;38372;52.902;6.024;2022-08-04T09:56:31;5.32;;;1.67;;
52458;SDS011;38372;52.902;6.024;2022-08-04T09:59:35;4.10;;;1.20;;
52458;SDS011;38372;52.902;6.024;2022-08-04T10:02:06;3.08;;;1.17;;
52458;SDS011;38372;52.902;6.024;2022-08-04T10:04:35;2.75;;;1.20;;
52458;SDS011;38372;52.902;6.024;2022-08-04T10:15:35;3.50;;;1.27;;
52458;SDS011;38372;52.902;6.024;2022-08-04T10:21:01;2.20;;;0.90;;
52458;SDS011;38372;52.902;6.024;2022-08-04T10:27:04;1.63;;;0.80;;
52458;SDS011;38372;52.902;6.024;2022-08-04T10:29:42;3.03;;;1.10;;
52458;SDS011;38372;52.902;6.024;2022-08-04T10:35:00;3.42;;;1.15;;
52458;SDS011;38372;52.902;6.024;2022-08-04T10:37:38;2.45;;;1.10;;
52458;SDS011;38372;52.902;6.024;2022-08-04T10:40:19;2.60;;;1.08;;
52458;SDS011;38372;52.902;6.024;2022-08-04T10:43:03;3.55;;;1.38;;
52458;SDS011;38372;52.902;6.024;2022-08-04T10:45:46;4.32;;;1.33;;
52458;SDS011;38372;52.902;6.024;2022-08-04T10:51:10;2.50;;;0.98;;
52458;SDS011;38372;52.902;6.024;2022-08-04T10:53:51;2.28;;;1.33;;
52458;SDS011;38372;52.902;6.024;2022-08-04T10:56:23;3.85;;;1.10;;
52458;SDS011;38372;52.902;6.024;2022-08-04T10:59:09;3.47;;;1.13;;
52458;SDS011;38372;52.902;6.024;2022-08-04T11:01:39;3.33;;;1.17;;
52458;SDS011;38372;52.902;6.024;2022-08-04T11:04:11;3.10;;;1.05;;
52458;SDS011;38372;52.902;6.024;2022-08-04T11:07:00;3.65;;;1.23;;
52458;SDS011;38372;52.902;6.024;2022-08-04T11:09:27;2.28;;;1.15;;
52458;SDS011;38372;52.902;6.024;2022-08-04T11:12:01;4.25;;;1.10;;
52458;SDS011;38372;52.902;6.024;2022-08-04T11:14:46;3.72;;;0.95;;
52458;SDS011;38372;52.902;6.024;2022-08-04T11:17:25;2.10;;;0.88;;
52458;SDS011;38372;52.902;6.024;2022-08-04T11:20:02;5.13;;;0.93;;
52458;SDS011;38372;52.902;6.024;2022-08-04T11:22:31;3.35;;;1.00;;
52458;SDS011;38372;52.902;6.024;2022-08-04T11:25:07;2.67;;;1.30;;
52458;SDS011;38372;52.902;6.024;2022-08-04T11:28:03;2.97;;;1.33;;
52458;SDS011;38372;52.902;6.024;2022-08-04T11:30:46;2.92;;;1.00;;
52458;SDS011;38372;52.902;6.024;2022-08-04T11:33:28;2.42;;;1.10;;
52458;SDS011;38372;52.902;6.024;2022-08-04T11:36:14;2.63;;;0.90;;
52458;SDS011;38372;52.902;6.024;2022-08-04T11:41:17;1.42;;;0.80;;
52458;SDS011;38372;52.902;6.024;2022-08-04T11:43:54;3.05;;;0.75;;
52458;SDS011;38372;52.902;6.024;2022-08-04T11:46:25;3.30;;;0.90;;
52458;SDS011;38372;52.902;6.024;2022-08-04T11:48:57;4.55;;;1.10;;
52458;SDS011;38372;52.902;6.024;2022-08-04T11:51:30;3.40;;;0.98;;
52458;SDS011;38372;52.902;6.024;2022-08-04T11:53:57;3.78;;;1.15;;
52458;SDS011;38372;52.902;6.024;2022-08-04T11:56:25;1.70;;;1.10;;
52458;SDS011;38372;52.902;6.024;2022-08-04T11:58:52;3.25;;;1.20;;
52458;SDS011;38372;52.902;6.024;2022-08-04T12:01:46;4.40;;;1.10;;
52458;SDS011;38372;52.902;6.024;2022-08-04T12:04:23;4.03;;;1.20;;
52458;SDS011;38372;52.902;6.024;2022-08-04T12:07:13;4.60;;;1.27;;
52458;SDS011;38372;52.902;6.024;2022-08-04T12:09:57;3.53;;;1.17;;
52458;SDS011;38372;52.902;6.024;2022-08-04T12:12:49;3.42;;;1.48;;
52458;SDS011;38372;52.902;6.024;2022-08-04T12:15:27;3.42;;;1.40;;
52458;SDS011;38372;52.902;6.024;2022-08-04T12:20:29;1.70;;;1.02;;
52458;SDS011;38372;52.902;6.024;2022-08-04T12:23:00;2.92;;;1.30;;
52458;SDS011;38372;52.902;6.024;2022-08-04T12:25:30;4.00;;;1.10;;
52458;SDS011;38372;52.902;6.024;2022-08-04T12:28:04;3.28;;;1.10;;
52458;SDS011;38372;52.902;6.024;2022-08-04T12:30:42;4.25;;;1.40;;
52458;SDS011;38372;52.902;6.024;2022-08-04T12:34:01;2.25;;;1.20;;
52458;SDS011;38372;52.902;6.024;2022-08-04T12:38:58;3.45;;;1.20;;
52458;SDS011;38372;52.902;6.024;2022-08-04T12:41:35;3.53;;;1.13;;
52458;SDS011;38372;52.902;6.024;2022-08-04T12:44:08;2.72;;;1.25;;
52458;SDS011;38372;52.902;6.024;2022-08-04T12:46:36;3.30;;;1.27;;
52458;SDS011;38372;52.902;6.024;2022-08-04T12:49:04;4.03;;;1.00;;
52458;SDS011;38372;52.902;6.024;2022-08-04T12:51:38;3.10;;;0.93;;
52458;SDS011;38372;52.902;6.024;2022-08-04T12:54:10;2.58;;;1.52;;
52458;SDS011;38372;52.902;6.024;2022-08-04T12:56:36;3.53;;;1.10;;
52458;SDS011;38372;52.902;6.024;2022-08-04T12:59:05;4.87;;;1.17;;
52458;SDS011;38372;52.902;6.024;2022-08-04T13:01:32;1.98;;;0.80;;
52458;SDS011;38372;52.902;6.024;2022-08-04T13:04:10;2.70;;;1.00;;
52458;SDS011;38372;52.902;6.024;2022-08-04T13:06:36;2.63;;;1.27;;
52458;SDS011;38372;52.902;6.024;2022-08-04T13:09:08;2.22;;;0.80;;
52458;SDS011;38372;52.902;6.024;2022-08-04T13:11:42;3.90;;;1.35;;
52458;SDS011;38372;52.902;6.024;2022-08-04T13:14:19;3.40;;;0.80;;
52458;SDS011;38372;52.902;6.024;2022-08-04T13:16:46;3.75;;;1.00;;
52458;SDS011;38372;52.902;6.024;2022-08-04T13:19:12;4.70;;;1.00;;
52458;SDS011;38372;52.902;6.024;2022-08-04T13:21:40;3.40;;;1.10;;
52458;SDS011;38372;52.902;6.024;2022-08-04T13:24:12;2.42;;;1.00;;
52458;SDS011;38372;52.902;6.024;2022-08-04T13:26:46;3.17;;;1.05;;
52458;SDS011;38372;52.902;6.024;2022-08-04T13:29:25;3.70;;;0.98;;
52458;SDS011;38372;52.902;6.024;2022-08-04T13:31:56;3.75;;;1.23;;
52458;SDS011;38372;52.902;6.024;2022-08-04T13:34:24;2.58;;;1.00;;
52458;SDS011;38372;52.902;6.024;2022-08-04T13:36:53;2.53;;;0.93;;
52458;SDS011;38372;52.902;6.024;2022-08-04T13:39:21;2.22;;;1.02;;
52458;SDS011;38372;52.902;6.024;2022-08-04T13:41:54;2.03;;;0.80;;
52458;SDS011;38372;52.902;6.024;2022-08-04T13:44:26;2.60;;;0.90;;
52458;SDS011;38372;52.902;6.024;2022-08-04T13:46:55;3.92;;;1.15;;
52458;SDS011;38372;52.902;6.024;2022-08-04T13:49:32;4.32;;;1.15;;
52458;SDS011;38372;52.902;6.024;2022-08-04T13:51:59;3.47;;;1.27;;
52458;SDS011;38372;52.902;6.024;2022-08-04T13:54:34;4.47;;;1.15;;
52458;SDS011;38372;52.902;6.024;2022-08-04T13:57:07;2.95;;;1.00;;
52458;SDS011;38372;52.902;6.024;2022-08-04T13:59:38;2.38;;;1.00;;
52458;SDS011;38372;52.902;6.024;2022-08-04T14:02:08;2.90;;;1.48;;
52458;SDS011;38372;52.902;6.024;2022-08-04T14:04:41;3.28;;;1.00;;
52458;SDS011;38372;52.902;6.024;2022-08-04T14:07:18;2.65;;;0.90;;
52458;SDS011;38372;52.902;6.024;2022-08-04T14:09:46;2.58;;;0.82;;
52458;SDS011;38372;52.902;6.024;2022-08-04T14:12:13;1.95;;;0.93;;
52458;SDS011;38372;52.902;6.024;2022-08-04T14:14:45;5.43;;;1.17;;
52458;SDS011;38372;52.902;6.024;2022-08-04T14:17:14;2.25;;;0.82;;
52458;SDS011;38372;52.902;6.024;2022-08-04T14:35:20;3.00;;;0.80;;
52458;SDS011;38372;52.902;6.024;2022-08-04T14:37:53;3.20;;;0.82;;
52458;SDS011;38372;52.902;6.024;2022-08-04T14:40:27;1.60;;;1.08;;
52458;SDS011;38372;52.902;6.024;2022-08-04T14:42:58;3.90;;;1.17;;
52458;SDS011;38372;52.902;6.024;2022-08-04T14:45:28;3.72;;;1.10;;
52458;SDS011;38372;52.902;6.024;2022-08-04T14:47:59;2.88;;;1.33;;
52458;SDS011;38372;52.902;6.024;2022-08-04T14:53:22;3.47;;;1.30;;
52458;SDS011;38372;52.902;6.024;2022-08-04T14:55:56;4.20;;;1.40;;
52458;SDS011;38372;52.902;6.024;2022-08-04T15:00:51;3.60;;;1.48;;
52458;SDS011;38372;52.902;6.024;2022-08-04T15:03:20;3.22;;;1.20;;
52458;SDS011;38372;52.902;6.024;2022-08-04T15:05:47;4.93;;;1.75;;
52458;SDS011;38372;52.902;6.024;2022-08-04T15:08:14;4.25;;;1.40;;
52458;SDS011;38372;52.902;6.024;2022-08-04T15:10:41;7.10;;;1.77;;
52458;SDS011;38372;52.902;6.024;2022-08-04T15:13:08;3.25;;;1.73;;
52458;SDS011;38372;52.902;6.024;2022-08-04T15:15:37;7.05;;;1.63;;
52458;SDS011;38372;52.902;6.024;2022-08-04T15:18:08;8.40;;;2.60;;
52458;SDS011;38372;52.902;6.024;2022-08-04T15:20:34;6.22;;;1.35;;
52458;SDS011;38372;52.902;6.024;2022-08-04T15:23:11;3.75;;;1.27;;
52458;SDS011;38372;52.902;6.024;2022-08-04T15:25:47;4.32;;;1.25;;
52458;SDS011;38372;52.902;6.024;2022-08-04T15:28:17;4.60;;;1.30;;
52458;SDS011;38372;52.902;6.024;2022-08-04T15:30:47;3.72;;;1.20;;
52458;SDS011;38372;52.902;6.024;2022-08-04T15:33:15;5.00;;;1.40;;
52458;SDS011;38372;52.902;6.024;2022-08-04T15:35:48;3.67;;;1.42;;
52458;SDS011;38372;52.902;6.024;2022-08-04T15:38:32;3.72;;;1.50;;
52458;SDS011;38372;52.902;6.024;2022-08-04T15:41:07;3.63;;;1.40;;
52458;SDS011;38372;52.902;6.024;2022-08-04T15:46:10;4.22;;;1.40;;
52458;SDS011;38372;52.902;6.024;2022-08-04T15:48:38;3.88;;;1.48;;
52458;SDS011;38372;52.902;6.024;2022-08-04T15:51:14;3.00;;;1.55;;
52458;SDS011;38372;52.902;6.024;2022-08-04T15:58:56;2.40;;;1.17;;
52458;SDS011;38372;52.902;6.024;2022-08-04T16:01:23;4.10;;;1.20;;
52458;SDS011;38372;52.902;6.024;2022-08-04T16:03:52;3.95;;;1.08;;
52458;SDS011;38372;52.902;6.024;2022-08-04T16:21:56;3.20;;;1.45;;
52458;SDS011;38372;52.902;6.024;2022-08-04T16:24:36;4.82;;;1.58;;
52458;SDS011;38372;52.902;6.024;2022-08-04T16:27:06;3.70;;;1.40;;
52458;SDS011;38372;52.902;6.024;2022-08-04T16:29:34;7.00;;;2.60;;
52458;SDS011;38372;52.902;6.024;2022-08-04T16:37:04;8.05;;;3.20;;
52458;SDS011;38372;52.902;6.024;2022-08-04T16:39:38;21.45;;;7.40;;
52458;SDS011;38372;52.902;6.024;2022-08-04T16:42:38;15.55;;;5.20;;
52458;SDS011;38372;52.902;6.024;2022-08-04T16:50:17;26.88;;;12.48;;
52458;SDS011;38372;52.902;6.024;2022-08-04T16:52:45;3.28;;;1.42;;
52458;SDS011;38372;52.902;6.024;2022-08-04T16:55:26;4.18;;;1.60;;
52458;SDS011;38372;52.902;6.024;2022-08-04T16:57:57;4.45;;;1.50;;
52458;SDS011;38372;52.902;6.024;2022-08-04T17:00:33;3.92;;;1.50;;
52458;SDS011;38372;52.902;6.024;2022-08-04T17:03:05;4.38;;;1.40;;
52458;SDS011;38372;52.902;6.024;2022-08-04T17:05:33;4.82;;;1.38;;
52458;SDS011;38372;52.902;6.024;2022-08-04T17:08:02;4.55;;;1.20;;
52458;SDS011;38372;52.902;6.024;2022-08-04T17:10:39;3.25;;;1.38;;
52458;SDS011;38372;52.902;6.024;2022-08-04T17:13:23;3.20;;;1.10;;
52458;SDS011;38372;52.902;6.024;2022-08-04T17:15:55;4.03;;;1.30;;
52458;SDS011;38372;52.902;6.024;2022-08-04T17:18:25;2.20;;;1.07;;
52458;SDS011;38372;52.902;6.024;2022-08-04T17:20:54;3.40;;;1.52;;
52458;SDS011;38372;52.902;6.024;2022-08-04T17:23:25;2.38;;;1.25;;
52458;SDS011;38372;52.902;6.024;2022-08-04T17:26:04;3.30;;;1.27;;
52458;SDS011;38372;52.902;6.024;2022-08-04T17:28:30;3.65;;;1.40;;
52458;SDS011;38372;52.902;6.024;2022-08-04T17:30:59;7.22;;;2.00;;
52458;SDS011;38372;52.902;6.024;2022-08-04T17:33:26;2.13;;;1.25;;
52458;SDS011;38372;52.902;6.024;2022-08-04T17:35:54;3.38;;;1.42;;
52458;SDS011;38372;52.902;6.024;2022-08-04T17:38:27;5.25;;;1.50;;
52458;SDS011;38372;52.902;6.024;2022-08-04T17:41:00;5.15;;;1.58;;
52458;SDS011;38372;52.902;6.024;2022-08-04T17:43:35;3.20;;;1.50;;
52458;SDS011;38372;52.902;6.024;2022-08-04T17:46:18;5.25;;;1.88;;
52458;SDS011;38372;52.902;6.024;2022-08-04T17:48:45;3.08;;;1.60;;
52458;SDS011;38372;52.902;6.024;2022-08-04T17:51:26;4.10;;;1.42;;
52458;SDS011;38372;52.902;6.024;2022-08-04T17:53:56;4.57;;;1.33;;
52458;SDS011;38372;52.902;6.024;2022-08-04T17:56:30;4.25;;;1.20;;
52458;SDS011;38372;52.902;6.024;2022-08-04T18:01:50;4.18;;;1.55;;
52458;SDS011;38372;52.902;6.024;2022-08-04T18:07:13;3.63;;;1.48;;
52458;SDS011;38372;52.902;6.024;2022-08-04T18:09:49;3.97;;;1.40;;
52458;SDS011;38372;52.902;6.024;2022-08-04T18:12:21;6.13;;;1.40;;
52458;SDS011;38372;52.902;6.024;2022-08-04T18:15:01;3.92;;;1.45;;
52458;SDS011;38372;52.902;6.024;2022-08-04T18:17:38;3.35;;;1.73;;
52458;SDS011;38372;52.902;6.024;2022-08-04T18:20:12;3.55;;;1.50;;
52458;SDS011;38372;52.902;6.024;2022-08-04T18:22:40;4.03;;;1.63;;
52458;SDS011;38372;52.902;6.024;2022-08-04T18:25:07;2.97;;;1.52;;
52458;SDS011;38372;52.902;6.024;2022-08-04T18:27:34;2.85;;;1.70;;
52458;SDS011;38372;52.902;6.024;2022-08-04T18:30:18;3.20;;;1.52;;
52458;SDS011;38372;52.902;6.024;2022-08-04T18:32:45;3.83;;;1.73;;
52458;SDS011;38372;52.902;6.024;2022-08-04T18:35:11;4.40;;;1.40;;
52458;SDS011;38372;52.902;6.024;2022-08-04T18:37:38;5.82;;;1.83;;
52458;SDS011;38372;52.902;6.024;2022-08-04T18:40:06;4.28;;;1.80;;
52458;SDS011;38372;52.902;6.024;2022-08-04T18:42:33;6.60;;;1.85;;
52458;SDS011;38372;52.902;6.024;2022-08-04T18:44:59;6.55;;;1.70;;
52458;SDS011;38372;52.902;6.024;2022-08-04T18:47:25;4.47;;;1.73;;
52458;SDS011;38372;52.902;6.024;2022-08-04T18:49:52;4.85;;;1.80;;
52458;SDS011;38372;52.902;6.024;2022-08-04T18:52:19;5.00;;;1.92;;
52458;SDS011;38372;52.902;6.024;2022-08-04T18:54:45;5.65;;;2.15;;
52458;SDS011;38372;52.902;6.024;2022-08-04T18:57:11;3.97;;;1.90;;
52458;SDS011;38372;52.902;6.024;2022-08-04T18:59:44;5.72;;;2.08;;
52458;SDS011;38372;52.902;6.024;2022-08-04T19:02:09;4.43;;;1.85;;
52458;SDS011;38372;52.902;6.024;2022-08-04T19:04:35;4.93;;;1.83;;
52458;SDS011;38372;52.902;6.024;2022-08-04T19:07:01;5.95;;;2.38;;
52458;SDS011;38372;52.902;6.024;2022-08-04T19:09:29;9.43;;;2.70;;
52458;SDS011;38372;52.902;6.024;2022-08-04T19:11:54;4.15;;;1.70;;
52458;SDS011;38372;52.902;6.024;2022-08-04T19:14:21;5.70;;;1.80;;
52458;SDS011;38372;52.902;6.024;2022-08-04T19:16:47;5.43;;;1.92;;
52458;SDS011;38372;52.902;6.024;2022-08-04T19:19:12;4.72;;;1.90;;
52458;SDS011;38372;52.902;6.024;2022-08-04T19:21:41;3.83;;;1.77;;
52458;SDS011;38372;52.902;6.024;2022-08-04T19:24:07;8.30;;;1.92;;
52458;SDS011;38372;52.902;6.024;2022-08-04T19:26:34;5.32;;;1.95;;
52458;SDS011;38372;52.902;6.024;2022-08-04T19:29:00;4.75;;;1.80;;
52458;SDS011;38372;52.902;6.024;2022-08-04T19:31:29;5.57;;;1.92;;
52458;SDS011;38372;52.902;6.024;2022-08-04T19:33:55;4.63;;;2.35;;
52458;SDS011;38372;52.902;6.024;2022-08-04T19:36:21;3.90;;;2.00;;
52458;SDS011;38372;52.902;6.024;2022-08-04T19:38:47;6.10;;;1.90;;